createdAt,value
2017-12-26T00:00:05.178Z,0
2017-12-26T00:00:46.396Z,0
2017-12-26T00:01:27.057Z,0
2017-12-26T00:02:08.074Z,0
2017-12-26T00:02:48.464Z,0
2017-12-26T00:03:29.730Z,0
2017-12-26T00:04:10.184Z,0
2017-12-26T00:04:50.789Z,0
2017-12-26T00:05:31.139Z,0
2017-12-26T00:06:11.562Z,0
2017-12-26T00:06:51.962Z,0
2017-12-26T00:07:32.402Z,0
2017-12-26T00:09:52.360Z,0
2017-12-26T00:10:31.578Z,0
2017-12-26T00:11:11.906Z,0
2017-12-26T00:11:52.459Z,0
2017-12-26T00:12:33.012Z,0
2017-12-26T00:13:13.429Z,0
2017-12-26T00:13:54.043Z,0
2017-12-26T00:14:36.250Z,0
2017-12-26T00:15:16.813Z,0
2017-12-26T00:15:57.155Z,0
2017-12-26T00:19:46.613Z,0
2017-12-26T00:20:26.963Z,0
2017-12-26T00:21:07.355Z,0
2017-12-26T00:21:48.110Z,0
2017-12-26T00:22:30.622Z,0
2017-12-26T00:23:11.629Z,0
2017-12-26T00:23:51.966Z,0
2017-12-26T00:24:34.031Z,0
2017-12-26T00:25:14.621Z,0
2017-12-26T00:25:54.949Z,0
2017-12-26T00:26:35.399Z,0
2017-12-26T00:27:16.101Z,0
2017-12-26T00:27:56.450Z,0
2017-12-26T00:28:36.999Z,0
2017-12-26T00:29:17.757Z,0
2017-12-26T00:29:58.114Z,0
2017-12-26T00:30:38.269Z,0
2017-12-26T00:35:45.836Z,0
2017-12-26T00:36:25.693Z,0
2017-12-26T00:37:06.044Z,0
2017-12-26T00:37:46.500Z,0
2017-12-26T00:38:26.897Z,0
2017-12-26T00:39:07.305Z,0
2017-12-26T00:39:47.718Z,0
2017-12-26T00:40:28.711Z,0
2017-12-26T00:41:09.171Z,0
2017-12-26T00:41:50.682Z,0
2017-12-26T00:42:31.301Z,0
2017-12-26T00:43:11.766Z,0
2017-12-26T00:43:53.224Z,0
2017-12-26T00:44:33.558Z,0
2017-12-26T00:45:16.016Z,0
2017-12-26T00:45:56.387Z,0
2017-12-26T00:46:37.798Z,0
2017-12-26T00:47:17.718Z,0
2017-12-26T00:47:58.512Z,0
2017-12-26T00:48:42.323Z,0
2017-12-26T00:49:22.728Z,0
2017-12-26T00:50:03.137Z,0
2017-12-26T00:50:43.697Z,0
2017-12-26T00:51:23.999Z,0
2017-12-26T00:52:05.188Z,0
2017-12-26T00:52:47.346Z,0
2017-12-26T00:53:28.562Z,0
2017-12-26T00:54:09.969Z,0
2017-12-26T00:54:50.296Z,0
2017-12-26T00:55:30.733Z,0
2017-12-26T00:56:12.211Z,0
2017-12-26T00:56:53.517Z,0
2017-12-26T00:57:34.425Z,0
2017-12-26T00:58:14.793Z,0
2017-12-26T01:02:34.407Z,0
2017-12-26T01:03:17.465Z,0
2017-12-26T01:03:57.845Z,0
2017-12-26T01:04:38.196Z,0
2017-12-26T01:05:18.790Z,0
2017-12-26T01:05:59.513Z,0
2017-12-26T01:06:40.287Z,0
2017-12-26T01:07:20.532Z,0
2017-12-26T01:08:01.119Z,0
2017-12-26T01:08:44.597Z,0
2017-12-26T01:09:25.217Z,0
2017-12-26T01:10:05.566Z,0
2017-12-26T01:10:46.069Z,0
2017-12-26T01:11:26.635Z,0
2017-12-26T01:12:06.916Z,0
2017-12-26T01:12:47.270Z,0
2017-12-26T01:13:27.811Z,0
2017-12-26T01:14:09.150Z,0
2017-12-26T01:14:49.560Z,0
2017-12-26T01:15:30.790Z,0
2017-12-26T01:16:12.591Z,0
2017-12-26T01:16:53.818Z,0
2017-12-26T01:17:35.274Z,0
2017-12-26T01:18:15.316Z,0
2017-12-26T01:18:55.755Z,0
2017-12-26T01:19:36.113Z,0
2017-12-26T01:20:16.538Z,0
2017-12-26T01:20:57.441Z,0
2017-12-26T01:21:37.598Z,0
2017-12-26T01:22:18.044Z,0
2017-12-26T01:22:58.469Z,0
2017-12-26T01:23:38.908Z,0
2017-12-26T01:24:20.179Z,0
2017-12-26T01:25:00.099Z,0
2017-12-26T01:25:40.369Z,0
2017-12-26T01:26:20.823Z,0
2017-12-26T01:27:01.538Z,0
2017-12-26T01:27:42.192Z,0
2017-12-26T01:28:22.877Z,0
2017-12-26T01:29:03.301Z,0
2017-12-26T01:29:43.745Z,0
2017-12-26T01:30:24.185Z,0
2017-12-26T01:31:04.682Z,0
2017-12-26T01:31:45.028Z,0
2017-12-26T01:32:25.761Z,0
2017-12-26T01:33:06.117Z,0
2017-12-26T01:33:46.539Z,0
2017-12-26T01:34:27.048Z,0
2017-12-26T01:35:07.407Z,0
2017-12-26T01:35:47.834Z,0
2017-12-26T01:36:28.271Z,0
2017-12-26T01:37:08.715Z,0
2017-12-26T01:37:49.055Z,0
2017-12-26T01:38:29.475Z,0
2017-12-26T01:39:09.856Z,0
2017-12-26T01:39:50.335Z,0
2017-12-26T01:40:30.795Z,0
2017-12-26T01:41:11.330Z,0
2017-12-26T01:41:51.520Z,0
2017-12-26T01:42:31.916Z,0
2017-12-26T01:43:12.389Z,0
2017-12-26T01:43:52.811Z,0
2017-12-26T01:44:33.198Z,0
2017-12-26T01:45:13.540Z,0
2017-12-26T01:45:54.016Z,0
2017-12-26T01:46:34.389Z,0
2017-12-26T01:47:14.757Z,0
2017-12-26T01:47:55.250Z,0
2017-12-26T01:48:35.613Z,0
2017-12-26T01:49:16.041Z,0
2017-12-26T01:49:56.475Z,0
2017-12-26T01:50:36.885Z,0
2017-12-26T01:51:17.272Z,0
2017-12-26T01:51:57.714Z,0
2017-12-26T01:52:38.114Z,0
2017-12-26T01:53:18.523Z,0
2017-12-26T01:53:58.926Z,0
2017-12-26T01:54:39.388Z,0
2017-12-26T01:55:20.287Z,0
2017-12-26T01:56:00.580Z,0
2017-12-26T01:56:40.936Z,0
2017-12-26T01:57:21.269Z,0
2017-12-26T01:58:01.835Z,0
2017-12-26T01:58:42.317Z,0
2017-12-26T01:59:22.638Z,0
2017-12-26T02:00:03.440Z,0
2017-12-26T02:00:43.517Z,0
2017-12-26T02:01:23.980Z,0
2017-12-26T02:02:04.422Z,0
2017-12-26T02:02:45.188Z,0
2017-12-26T02:03:25.575Z,0
2017-12-26T02:04:05.927Z,0
2017-12-26T02:04:46.547Z,0
2017-12-26T02:05:26.926Z,0
2017-12-26T02:06:07.351Z,0
2017-12-26T02:06:47.806Z,0
2017-12-26T02:07:28.723Z,0
2017-12-26T02:08:09.020Z,0
2017-12-26T02:08:49.553Z,0
2017-12-26T02:09:30.088Z,0
2017-12-26T02:10:10.362Z,0
2017-12-26T02:10:50.801Z,0
2017-12-26T02:11:31.750Z,0
2017-12-26T02:12:12.148Z,0
2017-12-26T02:12:52.508Z,0
2017-12-26T02:13:33.059Z,0
2017-12-26T02:14:13.598Z,0
2017-12-26T02:14:54.085Z,0
2017-12-26T02:15:34.734Z,0
2017-12-26T02:16:15.085Z,0
2017-12-26T02:16:55.470Z,0
2017-12-26T02:17:35.998Z,0
2017-12-26T02:18:16.423Z,0
2017-12-26T02:18:57.519Z,0
2017-12-26T02:19:37.944Z,0
2017-12-26T02:20:18.404Z,0
2017-12-26T02:20:58.840Z,0
2017-12-26T02:21:39.324Z,0
2017-12-26T02:22:19.702Z,0
2017-12-26T02:23:00.068Z,0
2017-12-26T02:23:40.442Z,0
2017-12-26T02:24:21.149Z,0
2017-12-26T02:25:01.349Z,0
2017-12-26T02:25:41.849Z,0
2017-12-26T02:26:22.252Z,0
2017-12-26T02:27:02.667Z,0
2017-12-26T02:27:43.198Z,0
2017-12-26T02:28:23.556Z,0
2017-12-26T02:29:04.263Z,0
2017-12-26T02:29:44.720Z,0
2017-12-26T02:30:25.242Z,0
2017-12-26T02:31:05.724Z,0
2017-12-26T02:31:46.117Z,0
2017-12-26T02:32:26.566Z,0
2017-12-26T02:33:07.554Z,0
2017-12-26T02:33:47.866Z,0
2017-12-26T02:34:28.395Z,0
2017-12-26T02:35:08.695Z,0
2017-12-26T02:35:49.130Z,0
2017-12-26T02:36:29.590Z,0
2017-12-26T02:37:10.259Z,0
2017-12-26T02:37:50.582Z,0
2017-12-26T02:38:31.010Z,0
2017-12-26T02:39:11.524Z,0
2017-12-26T02:39:51.962Z,0
2017-12-26T02:40:32.356Z,0
2017-12-26T02:41:13.042Z,0
2017-12-26T02:41:53.424Z,0
2017-12-26T02:42:33.823Z,0
2017-12-26T02:43:16.751Z,0
2017-12-26T02:43:57.181Z,0
2017-12-26T02:44:37.647Z,0
2017-12-26T02:45:18.080Z,0
2017-12-26T02:45:58.595Z,0
2017-12-26T02:46:39.011Z,0
2017-12-26T02:47:19.425Z,0
2017-12-26T02:47:59.873Z,0
2017-12-26T02:48:40.232Z,0
2017-12-26T02:49:20.930Z,0
2017-12-26T02:50:01.229Z,0
2017-12-26T02:50:41.588Z,0
2017-12-26T02:51:22.100Z,0
2017-12-26T02:52:02.554Z,0
2017-12-26T02:52:43.087Z,0
2017-12-26T02:53:23.938Z,0
2017-12-26T02:54:04.189Z,0
2017-12-26T02:54:44.571Z,0
2017-12-26T02:55:25.084Z,0
2017-12-26T02:56:05.353Z,0
2017-12-26T02:56:45.845Z,0
2017-12-26T02:57:26.287Z,0
2017-12-26T02:58:06.897Z,0
2017-12-26T02:58:47.441Z,0
2017-12-26T02:59:28.001Z,0
2017-12-26T03:00:08.380Z,0
2017-12-26T03:00:48.735Z,0
2017-12-26T03:01:29.209Z,0
2017-12-26T03:02:09.770Z,0
2017-12-26T03:02:50.115Z,0
2017-12-26T03:03:30.567Z,0
2017-12-26T03:04:11.181Z,0
2017-12-26T03:04:51.572Z,0
2017-12-26T03:05:32.005Z,0
2017-12-26T03:06:12.421Z,0
2017-12-26T03:06:53.332Z,0
2017-12-26T03:07:33.448Z,0
2017-12-26T03:08:13.831Z,0
2017-12-26T03:08:54.663Z,0
2017-12-26T03:09:34.811Z,0
2017-12-26T03:10:15.193Z,0
2017-12-26T03:10:55.680Z,0
2017-12-26T03:11:36.056Z,0
2017-12-26T03:12:16.501Z,0
2017-12-26T03:12:56.859Z,0
2017-12-26T03:13:37.588Z,0
2017-12-26T03:14:17.739Z,0
2017-12-26T03:14:58.170Z,0
2017-12-26T03:15:38.549Z,0
2017-12-26T03:16:18.949Z,0
2017-12-26T03:16:59.482Z,0
2017-12-26T03:17:39.821Z,0
2017-12-26T03:18:20.435Z,0
2017-12-26T03:19:00.796Z,0
2017-12-26T03:19:41.154Z,0
2017-12-26T03:20:21.737Z,0
2017-12-26T03:21:01.955Z,0
2017-12-26T03:21:42.530Z,0
2017-12-26T03:22:22.973Z,0
2017-12-26T03:23:03.481Z,0
2017-12-26T03:23:43.985Z,0
2017-12-26T03:24:24.780Z,0
2017-12-26T03:25:04.814Z,0
2017-12-26T03:25:45.255Z,0
2017-12-26T03:26:26.081Z,0
2017-12-26T03:27:06.863Z,0
2017-12-26T03:27:46.904Z,0
2017-12-26T03:28:27.370Z,0
2017-12-26T03:29:07.869Z,0
2017-12-26T03:29:48.249Z,0
2017-12-26T03:30:28.677Z,0
2017-12-26T03:31:09.195Z,0
2017-12-26T03:31:49.537Z,0
2017-12-26T03:32:29.918Z,0
2017-12-26T03:33:10.360Z,0
2017-12-26T03:33:50.762Z,0
2017-12-26T03:34:31.337Z,0
2017-12-26T03:35:11.756Z,0
2017-12-26T03:35:52.467Z,0
2017-12-26T03:36:32.649Z,0
2017-12-26T03:37:13.092Z,0
2017-12-26T03:37:53.567Z,0
2017-12-26T03:38:33.938Z,0
2017-12-26T03:39:14.538Z,0
2017-12-26T03:39:55.065Z,0
2017-12-26T03:40:36.646Z,0
2017-12-26T03:41:17.390Z,0
2017-12-26T03:41:57.644Z,0
2017-12-26T03:42:38.426Z,0
2017-12-26T03:43:18.797Z,0
2017-12-26T03:44:00.143Z,0
2017-12-26T03:44:40.859Z,0
2017-12-26T03:45:21.309Z,0
2017-12-26T03:46:01.634Z,0
2017-12-26T03:46:42.184Z,0
2017-12-26T03:47:22.720Z,0
2017-12-26T03:48:03.216Z,0
2017-12-26T03:48:43.441Z,0
2017-12-26T03:49:23.961Z,0
2017-12-26T03:50:04.449Z,0
2017-12-26T03:50:44.883Z,0
2017-12-26T03:51:25.284Z,0
2017-12-26T03:52:05.776Z,0
2017-12-26T03:52:46.161Z,0
2017-12-26T03:53:26.708Z,0
2017-12-26T03:54:07.156Z,0
2017-12-26T03:54:47.656Z,0
2017-12-26T03:55:28.074Z,0
2017-12-26T03:56:08.583Z,0
2017-12-26T03:56:48.910Z,0
2017-12-26T03:57:29.339Z,0
2017-12-26T03:58:09.752Z,0
2017-12-26T03:58:50.180Z,0
2017-12-26T03:59:30.647Z,0
2017-12-26T04:00:11.201Z,0
2017-12-26T04:00:51.400Z,0
2017-12-26T04:01:31.844Z,0
2017-12-26T04:02:12.404Z,0
2017-12-26T04:02:52.695Z,0
2017-12-26T04:03:33.081Z,0
2017-12-26T04:46:42.090Z,0
2017-12-26T04:47:21.345Z,0
2017-12-26T04:48:01.992Z,0
2017-12-26T04:48:42.661Z,0
2017-12-26T04:49:23.334Z,0
2017-12-26T04:50:03.728Z,0
2017-12-26T04:50:44.599Z,0
2017-12-26T04:51:24.754Z,0
2017-12-26T04:52:05.400Z,0
2017-12-26T04:52:45.650Z,0
2017-12-26T04:53:27.135Z,0
2017-12-26T04:54:08.028Z,0
2017-12-26T04:54:48.624Z,0
2017-12-26T04:58:27.917Z,0
2017-12-26T04:59:08.749Z,0
2017-12-26T04:59:48.924Z,0
2017-12-26T05:00:29.778Z,0
2017-12-26T05:01:10.170Z,0
2017-12-26T05:01:50.849Z,0
2017-12-26T05:02:31.239Z,0
2017-12-26T05:03:11.692Z,0
2017-12-26T05:03:52.210Z,0
2017-12-26T05:04:32.600Z,0
2017-12-26T05:05:13.499Z,0
2017-12-26T05:05:54.112Z,0
2017-12-26T05:06:34.513Z,0
2017-12-26T05:07:14.877Z,0
2017-12-26T05:07:55.294Z,0
2017-12-26T05:08:35.917Z,0
2017-12-26T05:09:16.321Z,0
2017-12-26T05:09:56.690Z,0
2017-12-26T05:10:37.464Z,0
2017-12-26T05:11:17.868Z,0
2017-12-26T05:11:58.612Z,0
2017-12-26T05:12:39.414Z,0
2017-12-26T05:13:20.037Z,0
2017-12-26T05:14:00.692Z,0
2017-12-26T05:14:41.295Z,0
2017-12-26T05:15:21.695Z,0
2017-12-26T05:16:02.622Z,0
2017-12-26T05:16:43.244Z,0
2017-12-26T05:17:24.532Z,0
2017-12-26T05:18:04.859Z,0
2017-12-26T05:18:45.422Z,0
2017-12-26T05:19:25.744Z,0
2017-12-26T05:20:06.184Z,0
2017-12-26T05:20:46.780Z,0
2017-12-26T05:21:27.198Z,0
2017-12-26T05:22:07.807Z,0
2017-12-26T05:22:48.520Z,0
2017-12-26T05:23:28.800Z,0
2017-12-26T05:24:09.491Z,0
2017-12-26T05:24:50.099Z,0
2017-12-26T05:25:30.979Z,0
2017-12-26T05:26:11.532Z,0
2017-12-26T05:26:51.982Z,0
2017-12-26T05:27:32.724Z,0
2017-12-26T05:28:13.441Z,0
2017-12-26T05:28:53.922Z,0
2017-12-26T05:29:34.433Z,0
2017-12-26T05:30:14.979Z,0
2017-12-26T05:30:55.654Z,0
2017-12-26T05:31:36.434Z,0
2017-12-26T05:32:16.939Z,0
2017-12-26T05:32:57.506Z,0
2017-12-26T05:33:37.852Z,0
2017-12-26T05:34:18.778Z,0
2017-12-26T05:34:59.261Z,0
2017-12-26T05:35:39.823Z,0
2017-12-26T05:36:20.112Z,0
2017-12-26T05:37:01.211Z,0
2017-12-26T05:37:42.341Z,0
2017-12-26T05:38:22.756Z,0
2017-12-26T05:39:05.361Z,0
2017-12-26T05:39:45.701Z,0
2017-12-26T05:40:26.110Z,0
2017-12-26T05:41:06.597Z,0
2017-12-26T05:41:47.461Z,0
2017-12-26T05:42:28.058Z,0
2017-12-26T05:43:08.471Z,0
2017-12-26T05:43:49.694Z,0
2017-12-26T05:44:29.919Z,0
2017-12-26T05:45:10.254Z,0
2017-12-26T05:45:51.052Z,0
2017-12-26T05:46:31.521Z,0
2017-12-26T05:47:13.083Z,0
2017-12-26T05:47:53.642Z,0
2017-12-26T05:48:33.966Z,0
2017-12-26T05:49:14.349Z,0
2017-12-26T05:49:54.820Z,0
2017-12-26T05:50:35.191Z,0
2017-12-26T05:51:15.709Z,0
2017-12-26T05:51:56.106Z,0
2017-12-26T05:52:37.095Z,0
2017-12-26T05:53:17.972Z,0
2017-12-26T05:53:59.764Z,0
2017-12-26T05:54:40.974Z,0
2017-12-26T05:55:21.234Z,0
2017-12-26T05:56:01.585Z,0
2017-12-26T05:56:42.074Z,0
2017-12-26T05:57:22.343Z,0
2017-12-26T05:58:03.138Z,0
2017-12-26T05:58:43.525Z,0
2017-12-26T05:59:24.377Z,0
2017-12-26T06:00:04.733Z,0
2017-12-26T06:00:45.489Z,0
2017-12-26T06:01:25.667Z,0
2017-12-26T06:02:06.114Z,0
2017-12-26T06:02:46.708Z,0
2017-12-26T06:03:27.695Z,0
2017-12-26T06:04:09.719Z,0
2017-12-26T06:04:49.923Z,0
2017-12-26T06:05:30.346Z,0
2017-12-26T06:06:10.765Z,0
2017-12-26T06:06:51.162Z,0
2017-12-26T06:07:31.644Z,0
2017-12-26T06:08:11.986Z,0
2017-12-26T06:08:52.297Z,0
2017-12-26T06:09:33.198Z,0
2017-12-26T06:10:14.014Z,0
2017-12-26T06:10:54.606Z,0
2017-12-26T06:11:35.279Z,0
2017-12-26T06:12:15.849Z,0
2017-12-26T06:12:56.515Z,0
2017-12-26T06:13:37.146Z,0
2017-12-26T06:14:17.919Z,0
2017-12-26T06:14:58.118Z,0
2017-12-26T06:15:38.855Z,0
2017-12-26T06:16:23.044Z,0
2017-12-26T06:17:03.151Z,0
2017-12-26T06:17:44.011Z,0
2017-12-26T06:18:24.731Z,0
2017-12-26T06:19:05.003Z,0
2017-12-26T06:19:46.016Z,0
2017-12-26T06:20:26.544Z,0
2017-12-26T06:21:07.784Z,0
2017-12-26T06:21:48.807Z,0
2017-12-26T06:22:29.219Z,0
2017-12-26T06:23:09.644Z,0
2017-12-26T06:23:50.898Z,0
2017-12-26T06:24:32.180Z,0
2017-12-26T06:25:12.736Z,0
2017-12-26T06:25:53.428Z,0
2017-12-26T06:26:33.882Z,0
2017-12-26T06:27:18.114Z,0
2017-12-26T06:27:58.555Z,0
2017-12-26T06:28:39.162Z,0
2017-12-26T06:29:19.957Z,0
2017-12-26T06:30:00.071Z,0
2017-12-26T06:30:41.491Z,0
2017-12-26T06:31:21.796Z,0
2017-12-26T06:32:02.925Z,0
2017-12-26T06:32:43.413Z,0
2017-12-26T06:33:24.420Z,0
2017-12-26T06:34:04.916Z,0
2017-12-26T06:34:45.498Z,0
2017-12-26T06:35:26.216Z,0
2017-12-26T06:36:06.304Z,0
2017-12-26T06:36:47.314Z,0
2017-12-26T06:37:29.869Z,0
2017-12-26T06:38:10.109Z,0
2017-12-26T06:40:13.619Z,0
2017-12-26T06:43:43.427Z,0
2017-12-26T06:46:35.289Z,0
2017-12-26T06:47:15.650Z,0
2017-12-26T06:47:56.256Z,0
2017-12-26T06:48:36.789Z,0
2017-12-26T06:49:17.740Z,0
2017-12-26T06:49:57.979Z,0
2017-12-26T06:50:38.517Z,0
2017-12-26T06:51:18.828Z,0
2017-12-26T06:51:59.218Z,0
2017-12-26T06:52:39.765Z,0
2017-12-26T06:53:20.208Z,0
2017-12-26T06:54:00.643Z,0
2017-12-26T06:54:41.150Z,0
2017-12-26T06:56:55.093Z,0
2017-12-26T06:57:35.555Z,0
2017-12-26T06:58:16.097Z,0
2017-12-26T06:58:56.388Z,0
2017-12-26T06:59:37.005Z,0
2017-12-26T07:00:17.472Z,0
2017-12-26T07:00:58.042Z,0
2017-12-26T07:01:38.272Z,0
2017-12-26T07:02:18.645Z,0
2017-12-26T07:02:59.137Z,0
2017-12-26T07:06:32.678Z,0
2017-12-26T07:07:12.916Z,0
2017-12-26T07:07:53.518Z,0
2017-12-26T07:08:33.972Z,0
2017-12-26T07:09:14.394Z,0
2017-12-26T07:09:55.338Z,0
2017-12-26T07:10:35.316Z,0
2017-12-26T07:11:15.769Z,0
2017-12-26T07:11:56.251Z,0
2017-12-26T07:12:36.832Z,0
2017-12-26T07:13:17.192Z,0
2017-12-26T07:13:57.954Z,0
2017-12-26T07:14:38.545Z,0
2017-12-26T07:15:18.931Z,0
2017-12-26T07:15:59.384Z,0
2017-12-26T07:16:39.848Z,0
2017-12-26T07:17:20.245Z,0
2017-12-26T07:18:00.895Z,0
2017-12-26T07:18:42.066Z,0
2017-12-26T07:19:22.311Z,0
2017-12-26T07:20:02.891Z,0
2017-12-26T07:20:43.140Z,0
2017-12-26T07:21:23.546Z,0
2017-12-26T07:22:03.953Z,0
2017-12-26T07:22:44.352Z,0
2017-12-26T07:23:24.791Z,0
2017-12-26T07:24:05.291Z,0
2017-12-26T07:27:39.140Z,0
2017-12-26T07:28:19.124Z,4
2017-12-26T07:29:01.651Z,4
2017-12-26T07:29:42.181Z,4
2017-12-26T07:30:22.571Z,4
2017-12-26T07:31:03.346Z,4
2017-12-26T07:31:44.038Z,4
2017-12-26T07:32:24.508Z,4
2017-12-26T07:33:04.925Z,8
2017-12-26T07:33:45.314Z,8
2017-12-26T07:34:26.405Z,8
2017-12-26T07:35:08.419Z,8
2017-12-26T07:35:48.900Z,8
2017-12-26T07:36:29.154Z,8
2017-12-26T07:37:12.263Z,8
2017-12-26T07:37:52.267Z,8
2017-12-26T07:38:33.215Z,8
2017-12-26T07:39:13.731Z,8
2017-12-26T07:39:54.508Z,8
2017-12-26T07:40:34.923Z,8
2017-12-26T07:41:15.697Z,12
2017-12-26T07:41:56.199Z,12
2017-12-26T07:42:36.618Z,8
2017-12-26T07:43:17.134Z,12
2017-12-26T07:43:57.439Z,12
2017-12-26T07:44:37.810Z,12
2017-12-26T07:45:18.295Z,16
2017-12-26T07:45:59.058Z,16
2017-12-26T07:46:39.796Z,16
2017-12-26T07:47:20.247Z,20
2017-12-26T07:48:00.628Z,16
2017-12-26T07:48:41.076Z,16
2017-12-26T07:49:22.282Z,16
2017-12-26T07:50:02.363Z,20
2017-12-26T07:50:43.660Z,20
2017-12-26T07:51:24.187Z,20
2017-12-26T07:52:04.615Z,20
2017-12-26T07:52:45.343Z,16
2017-12-26T07:53:26.390Z,16
2017-12-26T07:54:06.621Z,20
2017-12-26T07:54:46.994Z,16
2017-12-26T07:55:27.365Z,16
2017-12-26T07:56:07.708Z,16
2017-12-26T07:56:48.089Z,12
2017-12-26T07:57:28.511Z,12
2017-12-26T07:58:08.993Z,12
2017-12-26T07:58:49.373Z,12
2017-12-26T07:59:29.704Z,12
2017-12-26T08:00:10.146Z,16
2017-12-26T08:08:36.883Z,36
2017-12-26T08:10:36.825Z,32
2017-12-26T08:11:33.715Z,28
2017-12-26T08:12:14.533Z,28
2017-12-26T08:12:54.948Z,24
2017-12-26T08:13:35.333Z,24
2017-12-26T08:14:16.064Z,28
2017-12-26T08:14:56.329Z,28
2017-12-26T08:15:36.766Z,28
2017-12-26T08:16:17.174Z,24
2017-12-26T08:16:57.732Z,28
2017-12-26T08:17:38.237Z,28
2017-12-26T08:18:18.923Z,28
2017-12-26T08:18:59.531Z,36
2017-12-26T08:19:40.652Z,36
2017-12-26T08:20:21.073Z,40
2017-12-26T08:21:01.510Z,44
2017-12-26T08:21:42.930Z,52
2017-12-26T08:22:23.543Z,52
2017-12-26T08:23:03.977Z,44
2017-12-26T08:23:44.364Z,40
2017-12-26T08:24:24.776Z,40
2017-12-26T08:25:05.190Z,44
2017-12-26T08:25:47.115Z,48
2017-12-26T08:26:26.901Z,48
2017-12-26T08:27:07.240Z,52
2017-12-26T08:27:47.553Z,60
2017-12-26T08:28:28.130Z,60
2017-12-26T08:29:09.844Z,68
2017-12-26T08:29:50.191Z,72
2017-12-26T08:30:31.949Z,76
2017-12-26T08:31:12.942Z,72
2017-12-26T08:31:53.173Z,80
2017-12-26T08:32:33.777Z,88
2017-12-26T08:37:53.687Z,132
2017-12-26T08:38:34.544Z,148
2017-12-26T08:39:15.285Z,164
2017-12-26T08:39:56.564Z,176
2017-12-26T08:40:38.524Z,184
2017-12-26T08:41:19.754Z,192
2017-12-26T08:42:00.304Z,188
2017-12-26T08:42:43.523Z,184
2017-12-26T08:43:22.837Z,180
2017-12-26T08:44:04.295Z,176
2017-12-26T08:44:45.128Z,176
2017-12-26T08:45:29.247Z,172
2017-12-26T08:46:11.618Z,168
2017-12-26T08:46:52.694Z,164
2017-12-26T08:47:35.645Z,156
2017-12-26T08:48:16.818Z,152
2017-12-26T08:48:58.908Z,140
2017-12-26T08:49:39.814Z,128
2017-12-26T08:50:22.332Z,124
2017-12-26T08:51:03.007Z,124
2017-12-26T08:51:43.238Z,120
2017-12-26T08:52:27.189Z,120
2017-12-26T08:53:07.840Z,120
2017-12-26T08:53:48.528Z,124
2017-12-26T08:54:32.479Z,128
2017-12-26T08:55:13.978Z,124
2017-12-26T08:55:58.113Z,104
2017-12-26T08:56:41.199Z,108
2017-12-26T08:57:23.184Z,100
2017-12-26T08:58:03.607Z,92
2017-12-26T08:58:47.472Z,92
2017-12-26T08:59:28.531Z,100
2017-12-26T09:00:09.888Z,108
2017-12-26T09:00:50.395Z,112
2017-12-26T09:01:32.411Z,104
2017-12-26T09:02:12.934Z,96
2017-12-26T09:02:54.863Z,92
2017-12-26T09:03:37.204Z,96
2017-12-26T09:04:19.017Z,96
2017-12-26T09:04:59.953Z,92
2017-12-26T09:05:45.281Z,92
2017-12-26T09:06:25.868Z,88
2017-12-26T09:07:09.839Z,84
2017-12-26T09:07:51.890Z,88
2017-12-26T09:08:32.184Z,92
2017-12-26T09:09:14.486Z,100
2017-12-26T09:09:57.227Z,108
2017-12-26T09:10:38.465Z,116
2017-12-26T09:11:20.508Z,120
2017-12-26T09:12:02.431Z,128
2017-12-26T09:12:43.631Z,136
2017-12-26T09:18:08.286Z,172
2017-12-26T09:18:45.330Z,172
2017-12-26T09:19:29.358Z,184
2017-12-26T09:20:09.016Z,204
2017-12-26T09:20:49.977Z,228
2017-12-26T09:21:32.032Z,252
2017-12-26T09:22:13.180Z,284
2017-12-26T09:22:54.571Z,304
2017-12-26T09:23:36.134Z,320
2017-12-26T09:24:17.892Z,336
2017-12-26T09:24:58.407Z,340
2017-12-26T09:25:39.633Z,340
2017-12-26T09:26:20.443Z,340
2017-12-26T09:27:00.956Z,348
2017-12-26T09:27:46.004Z,356
2017-12-26T09:28:27.377Z,364
2017-12-26T09:29:09.813Z,372
2017-12-26T09:29:51.280Z,368
2017-12-26T09:30:32.283Z,360
2017-12-26T09:31:13.213Z,360
2017-12-26T09:31:55.346Z,352
2017-12-26T09:32:35.491Z,348
2017-12-26T09:33:19.004Z,356
2017-12-26T09:33:58.867Z,360
2017-12-26T09:34:39.960Z,360
2017-12-26T09:35:20.803Z,356
2017-12-26T09:36:01.684Z,348
2017-12-26T09:36:42.924Z,332
2017-12-26T09:37:23.671Z,308
2017-12-26T09:38:04.314Z,280
2017-12-26T09:38:44.934Z,256
2017-12-26T09:39:25.985Z,248
2017-12-26T09:40:08.169Z,240
2017-12-26T09:40:47.224Z,232
2017-12-26T09:41:28.003Z,224
2017-12-26T09:42:08.195Z,216
2017-12-26T09:42:48.633Z,212
2017-12-26T09:43:28.960Z,212
2017-12-26T09:44:10.569Z,216
2017-12-26T09:44:51.220Z,228
2017-12-26T09:45:31.788Z,248
2017-12-26T09:46:12.378Z,264
2017-12-26T09:46:53.794Z,264
2017-12-26T09:47:34.011Z,256
2017-12-26T09:48:14.381Z,252
2017-12-26T09:48:54.791Z,244
2017-12-26T09:49:35.563Z,240
2017-12-26T09:50:15.731Z,232
2017-12-26T09:50:57.087Z,240
2017-12-26T09:51:37.313Z,252
2017-12-26T09:52:18.918Z,276
2017-12-26T09:52:59.386Z,296
2017-12-26T09:53:41.053Z,308
2017-12-26T09:54:22.693Z,308
2017-12-26T09:55:05.555Z,296
2017-12-26T09:55:43.931Z,288
2017-12-26T09:56:24.947Z,280
2017-12-26T09:57:05.129Z,276
2017-12-26T09:59:52.799Z,304
2017-12-26T10:00:33.703Z,316
2017-12-26T10:01:14.072Z,332
2017-12-26T10:01:54.429Z,360
2017-12-26T10:02:34.907Z,376
2017-12-26T10:03:15.256Z,388
2017-12-26T10:03:55.721Z,396
2017-12-26T10:42:45.859Z,640
2017-12-26T10:43:26.422Z,648
2017-12-26T10:44:06.848Z,664
2017-12-26T10:44:47.196Z,640
2017-12-26T10:45:28.562Z,628
2017-12-26T10:46:08.503Z,632
2017-12-26T10:46:49.001Z,652
2017-12-26T10:47:31.349Z,672
2017-12-26T10:48:12.166Z,700
2017-12-26T10:48:52.627Z,712
2017-12-26T10:49:33.048Z,716
2017-12-26T10:50:13.445Z,712
2017-12-26T10:50:54.235Z,732
2017-12-26T10:51:34.536Z,752
2017-12-26T10:52:15.220Z,772
2017-12-26T10:52:56.543Z,756
2017-12-26T10:53:38.032Z,732
2017-12-26T10:54:18.492Z,816
2017-12-26T10:54:58.920Z,776
2017-12-26T10:55:39.272Z,816
2017-12-26T10:56:19.869Z,820
2017-12-26T10:57:00.993Z,820
2017-12-26T10:57:42.116Z,824
2017-12-26T10:58:22.377Z,828
2017-12-26T10:59:03.107Z,848
2017-12-26T10:59:44.716Z,864
2017-12-26T11:00:25.252Z,832
2017-12-26T11:01:05.824Z,796
2017-12-26T11:01:46.454Z,840
2017-12-26T11:02:27.033Z,840
2017-12-26T11:03:07.540Z,828
2017-12-26T11:03:48.403Z,888
2017-12-26T11:04:28.692Z,916
2017-12-26T11:05:09.764Z,808
2017-12-26T11:05:50.619Z,1208
2017-12-26T11:06:31.757Z,988
2017-12-26T11:07:12.136Z,900
2017-12-26T11:07:53.213Z,944
2017-12-26T11:08:33.597Z,1304
2017-12-26T11:09:14.078Z,1432
2017-12-26T11:09:55.640Z,1360
2017-12-26T11:10:36.894Z,1272
2017-12-26T11:11:17.178Z,988
2017-12-26T11:11:57.778Z,1300
2017-12-26T11:12:38.484Z,856
2017-12-26T11:13:18.832Z,1080
2017-12-26T11:14:00.189Z,1076
2017-12-26T11:14:40.520Z,1012
2017-12-26T11:15:21.724Z,728
2017-12-26T11:17:42.477Z,1096
2017-12-26T11:18:22.485Z,1044
2017-12-26T11:19:02.940Z,1016
2017-12-26T11:19:44.203Z,1000
2017-12-26T11:20:24.190Z,976
2017-12-26T11:21:04.603Z,984
2017-12-26T11:21:45.811Z,996
2017-12-26T11:22:26.268Z,1052
2017-12-26T11:23:06.815Z,1132
2017-12-26T11:23:47.486Z,804
2017-12-26T11:24:28.248Z,764
2017-12-26T11:25:09.172Z,680
2017-12-26T11:25:49.040Z,972
2017-12-26T11:26:29.555Z,980
2017-12-26T11:27:10.818Z,980
2017-12-26T11:27:51.824Z,1052
2017-12-26T11:28:32.492Z,988
2017-12-26T11:29:12.990Z,724
2017-12-26T11:29:54.615Z,960
2017-12-26T11:30:34.709Z,944
2017-12-26T11:31:16.262Z,928
2017-12-26T11:31:56.931Z,956
2017-12-26T11:32:38.205Z,900
2017-12-26T11:33:18.829Z,976
2017-12-26T11:33:59.409Z,960
2017-12-26T11:34:40.050Z,968
2017-12-26T11:35:20.713Z,972
2017-12-26T11:36:01.375Z,948
2017-12-26T11:36:42.115Z,984
2017-12-26T11:37:23.511Z,944
2017-12-26T11:38:03.681Z,948
2017-12-26T11:41:06.879Z,892
2017-12-26T11:41:47.551Z,936
2017-12-26T11:42:28.176Z,920
2017-12-26T11:43:08.976Z,916
2017-12-26T11:43:49.182Z,924
2017-12-26T11:44:30.490Z,932
2017-12-26T11:45:10.708Z,928
2017-12-26T11:45:51.347Z,936
2017-12-26T11:46:32.102Z,944
2017-12-26T11:47:12.536Z,952
2017-12-26T11:47:53.162Z,944
2017-12-26T11:48:33.496Z,912
2017-12-26T11:49:14.638Z,948
2017-12-26T11:49:55.202Z,968
2017-12-26T11:50:35.538Z,964
2017-12-26T11:51:16.223Z,972
2017-12-26T11:51:56.787Z,952
2017-12-26T11:52:37.354Z,944
2017-12-26T11:53:17.907Z,944
2017-12-26T11:53:58.336Z,760
2017-12-26T11:54:39.050Z,640
2017-12-26T11:55:19.835Z,628
2017-12-26T11:56:00.513Z,624
2017-12-26T11:56:41.513Z,624
2017-12-26T11:57:22.117Z,628
2017-12-26T11:58:02.554Z,632
2017-12-26T11:58:43.739Z,644
2017-12-26T11:59:24.153Z,660
2017-12-26T12:00:04.849Z,728
2017-12-26T12:00:45.331Z,780
2017-12-26T12:01:27.866Z,844
2017-12-26T12:02:08.801Z,1024
2017-12-26T12:02:49.308Z,1068
2017-12-26T12:03:30.468Z,1112